sensor_id;sensor_type;location;lat;lon;timestamp;P1;durP1;ratioP1;P2;durP2;ratioP2
9807;SDS011;4943;52.550;13.462;2023-07-30T00:00:12;327.93;;;254.73;;
9807;SDS011;4943;52.550;13.462;2023-07-30T00:02:41;330.70;;;261.70;;
9807;SDS011;4943;52.550;13.462;2023-07-30T00:05:09;327.17;;;257.40;;
9807;SDS011;4943;52.550;13.462;2023-07-30T00:07:38;331.43;;;260.47;;
9807;SDS011;4943;52.550;13.462;2023-07-30T00:10:07;327.13;;;254.80;;
9807;SDS011;4943;52.550;13.462;2023-07-30T00:12:35;322.17;;;240.43;;
9807;SDS011;4943;52.550;13.462;2023-07-30T00:15:04;325.70;;;242.43;;
9807;SDS011;4943;52.550;13.462;2023-07-30T00:17:33;327.50;;;245.10;;
9807;SDS011;4943;52.550;13.462;2023-07-30T00:20:02;329.37;;;258.87;;
9807;SDS011;4943;52.550;13.462;2023-07-30T00:22:31;329.17;;;258.60;;
9807;SDS011;4943;52.550;13.462;2023-07-30T00:25:01;325.77;;;247.80;;
9807;SDS011;4943;52.550;13.462;2023-07-30T00:27:30;326.17;;;249.67;;
9807;SDS011;4943;52.550;13.462;2023-07-30T00:29:58;330.20;;;247.63;;
9807;SDS011;4943;52.550;13.462;2023-07-30T00:32:26;327.40;;;248.30;;
9807;SDS011;4943;52.550;13.462;2023-07-30T00:34:54;326.20;;;243.50;;
9807;SDS011;4943;52.550;13.462;2023-07-30T00:37:22;322.13;;;238.57;;
9807;SDS011;4943;52.550;13.462;2023-07-30T00:39:51;323.30;;;238.60;;
9807;SDS011;4943;52.550;13.462;2023-07-30T00:42:20;326.30;;;248.43;;
9807;SDS011;4943;52.550;13.462;2023-07-30T00:44:48;324.43;;;239.93;;
9807;SDS011;4943;52.550;13.462;2023-07-30T00:47:17;325.50;;;247.60;;
9807;SDS011;4943;52.550;13.462;2023-07-30T00:49:45;324.37;;;243.53;;
9807;SDS011;4943;52.550;13.462;2023-07-30T00:52:14;326.57;;;248.73;;
9807;SDS011;4943;52.550;13.462;2023-07-30T00:54:43;321.40;;;235.20;;
9807;SDS011;4943;52.550;13.462;2023-07-30T00:57:12;325.13;;;241.23;;
9807;SDS011;4943;52.550;13.462;2023-07-30T00:59:42;327.17;;;244.80;;
9807;SDS011;4943;52.550;13.462;2023-07-30T01:02:10;326.40;;;243.17;;
9807;SDS011;4943;52.550;13.462;2023-07-30T01:04:39;325.80;;;246.27;;
9807;SDS011;4943;52.550;13.462;2023-07-30T01:07:08;322.17;;;238.27;;
9807;SDS011;4943;52.550;13.462;2023-07-30T01:09:36;321.83;;;232.50;;
9807;SDS011;4943;52.550;13.462;2023-07-30T01:12:05;323.67;;;237.57;;
9807;SDS011;4943;52.550;13.462;2023-07-30T01:14:34;328.87;;;240.90;;
9807;SDS011;4943;52.550;13.462;2023-07-30T01:17:05;322.00;;;234.83;;
9807;SDS011;4943;52.550;13.462;2023-07-30T01:19:34;324.93;;;237.13;;
9807;SDS011;4943;52.550;13.462;2023-07-30T01:22:03;320.53;;;228.43;;
9807;SDS011;4943;52.550;13.462;2023-07-30T01:24:31;323.40;;;234.13;;
9807;SDS011;4943;52.550;13.462;2023-07-30T01:27:01;319.83;;;230.43;;
9807;SDS011;4943;52.550;13.462;2023-07-30T01:29:33;321.23;;;230.00;;
9807;SDS011;4943;52.550;13.462;2023-07-30T01:32:08;323.97;;;234.83;;
9807;SDS011;4943;52.550;13.462;2023-07-30T01:34:39;322.87;;;230.87;;
9807;SDS011;4943;52.550;13.462;2023-07-30T01:37:11;323.47;;;237.07;;
9807;SDS011;4943;52.550;13.462;2023-07-30T01:39:40;323.40;;;236.60;;
9807;SDS011;4943;52.550;13.462;2023-07-30T01:42:11;322.50;;;235.53;;
9807;SDS011;4943;52.550;13.462;2023-07-30T01:44:39;320.67;;;227.00;;
9807;SDS011;4943;52.550;13.462;2023-07-30T01:47:08;321.30;;;230.17;;
9807;SDS011;4943;52.550;13.462;2023-07-30T01:49:36;323.43;;;230.50;;
9807;SDS011;4943;52.550;13.462;2023-07-30T01:52:04;324.20;;;233.03;;
9807;SDS011;4943;52.550;13.462;2023-07-30T01:54:34;323.93;;;232.50;;
9807;SDS011;4943;52.550;13.462;2023-07-30T01:57:03;318.93;;;224.50;;
9807;SDS011;4943;52.550;13.462;2023-07-30T01:59:31;319.50;;;221.20;;
9807;SDS011;4943;52.550;13.462;2023-07-30T02:01:59;320.80;;;223.33;;
9807;SDS011;4943;52.550;13.462;2023-07-30T02:04:28;317.97;;;217.53;;
9807;SDS011;4943;52.550;13.462;2023-07-30T02:06:56;322.97;;;224.80;;
9807;SDS011;4943;52.550;13.462;2023-07-30T02:09:25;327.23;;;233.50;;
9807;SDS011;4943;52.550;13.462;2023-07-30T02:11:55;325.00;;;236.27;;
9807;SDS011;4943;52.550;13.462;2023-07-30T02:14:23;318.77;;;217.33;;
9807;SDS011;4943;52.550;13.462;2023-07-30T02:16:51;320.97;;;221.63;;
9807;SDS011;4943;52.550;13.462;2023-07-30T02:19:19;316.93;;;216.20;;
9807;SDS011;4943;52.550;13.462;2023-07-30T02:21:47;321.93;;;220.33;;
9807;SDS011;4943;52.550;13.462;2023-07-30T02:24:15;317.77;;;215.80;;
9807;SDS011;4943;52.550;13.462;2023-07-30T02:26:44;321.90;;;224.90;;
9807;SDS011;4943;52.550;13.462;2023-07-30T02:29:13;321.33;;;223.10;;
9807;SDS011;4943;52.550;13.462;2023-07-30T02:31:41;320.63;;;223.33;;
9807;SDS011;4943;52.550;13.462;2023-07-30T02:34:10;323.67;;;225.30;;
9807;SDS011;4943;52.550;13.462;2023-07-30T02:36:38;318.43;;;215.73;;
9807;SDS011;4943;52.550;13.462;2023-07-30T02:39:06;321.87;;;219.93;;
9807;SDS011;4943;52.550;13.462;2023-07-30T02:41:34;319.90;;;220.43;;
9807;SDS011;4943;52.550;13.462;2023-07-30T02:44:03;320.17;;;220.63;;
9807;SDS011;4943;52.550;13.462;2023-07-30T02:46:32;319.67;;;213.40;;
9807;SDS011;4943;52.550;13.462;2023-07-30T02:49:01;319.37;;;221.20;;
9807;SDS011;4943;52.550;13.462;2023-07-30T02:51:29;319.30;;;217.67;;
9807;SDS011;4943;52.550;13.462;2023-07-30T02:53:57;318.70;;;217.70;;
9807;SDS011;4943;52.550;13.462;2023-07-30T02:56:26;315.10;;;209.93;;
9807;SDS011;4943;52.550;13.462;2023-07-30T02:58:54;311.87;;;196.07;;
9807;SDS011;4943;52.550;13.462;2023-07-30T03:01:23;321.77;;;223.90;;
9807;SDS011;4943;52.550;13.462;2023-07-30T03:03:52;317.83;;;213.13;;
9807;SDS011;4943;52.550;13.462;2023-07-30T03:06:21;319.03;;;219.47;;
9807;SDS011;4943;52.550;13.462;2023-07-30T03:08:49;319.13;;;218.47;;
9807;SDS011;4943;52.550;13.462;2023-07-30T03:11:17;318.63;;;216.30;;
9807;SDS011;4943;52.550;13.462;2023-07-30T03:13:45;317.00;;;215.97;;
9807;SDS011;4943;52.550;13.462;2023-07-30T03:16:13;324.10;;;215.20;;
9807;SDS011;4943;52.550;13.462;2023-07-30T03:18:42;319.60;;;217.00;;
9807;SDS011;4943;52.550;13.462;2023-07-30T03:21:11;319.77;;;214.57;;
9807;SDS011;4943;52.550;13.462;2023-07-30T03:23:39;319.60;;;220.90;;
9807;SDS011;4943;52.550;13.462;2023-07-30T03:26:10;318.37;;;223.97;;
9807;SDS011;4943;52.550;13.462;2023-07-30T03:28:38;319.23;;;219.27;;
9807;SDS011;4943;52.550;13.462;2023-07-30T03:31:07;322.07;;;221.03;;
9807;SDS011;4943;52.550;13.462;2023-07-30T03:33:35;320.27;;;215.93;;
9807;SDS011;4943;52.550;13.462;2023-07-30T03:36:05;319.50;;;218.57;;
9807;SDS011;4943;52.550;13.462;2023-07-30T03:38:35;316.97;;;212.67;;
9807;SDS011;4943;52.550;13.462;2023-07-30T03:41:04;320.43;;;221.63;;
9807;SDS011;4943;52.550;13.462;2023-07-30T03:43:32;317.90;;;205.57;;
9807;SDS011;4943;52.550;13.462;2023-07-30T03:46:00;316.87;;;208.70;;
9807;SDS011;4943;52.550;13.462;2023-07-30T03:48:29;320.10;;;216.67;;
9807;SDS011;4943;52.550;13.462;2023-07-30T03:50:57;323.57;;;230.63;;
9807;SDS011;4943;52.550;13.462;2023-07-30T03:53:25;321.30;;;218.43;;
9807;SDS011;4943;52.550;13.462;2023-07-30T03:55:55;322.53;;;218.17;;
9807;SDS011;4943;52.550;13.462;2023-07-30T03:58:23;322.30;;;220.33;;
9807;SDS011;4943;52.550;13.462;2023-07-30T04:00:51;325.57;;;221.37;;
9807;SDS011;4943;52.550;13.462;2023-07-30T04:03:19;318.30;;;218.43;;
9807;SDS011;4943;52.550;13.462;2023-07-30T04:05:48;318.17;;;208.23;;
9807;SDS011;4943;52.550;13.462;2023-07-30T04:08:16;320.90;;;219.97;;
9807;SDS011;4943;52.550;13.462;2023-07-30T04:10:44;322.10;;;226.80;;
9807;SDS011;4943;52.550;13.462;2023-07-30T04:13:14;320.23;;;220.60;;
9807;SDS011;4943;52.550;13.462;2023-07-30T04:15:42;319.63;;;222.90;;
9807;SDS011;4943;52.550;13.462;2023-07-30T04:18:10;320.60;;;224.03;;
9807;SDS011;4943;52.550;13.462;2023-07-30T04:20:38;320.37;;;232.07;;
9807;SDS011;4943;52.550;13.462;2023-07-30T04:23:07;322.30;;;232.57;;
9807;SDS011;4943;52.550;13.462;2023-07-30T04:25:35;322.37;;;228.03;;
9807;SDS011;4943;52.550;13.462;2023-07-30T04:28:03;323.73;;;235.73;;
9807;SDS011;4943;52.550;13.462;2023-07-30T04:30:33;325.73;;;238.47;;
9807;SDS011;4943;52.550;13.462;2023-07-30T04:33:01;324.00;;;236.93;;
9807;SDS011;4943;52.550;13.462;2023-07-30T04:35:29;327.40;;;245.20;;
9807;SDS011;4943;52.550;13.462;2023-07-30T04:37:58;324.07;;;239.37;;
9807;SDS011;4943;52.550;13.462;2023-07-30T04:40:26;327.27;;;237.80;;
9807;SDS011;4943;52.550;13.462;2023-07-30T04:42:54;328.83;;;249.57;;
9807;SDS011;4943;52.550;13.462;2023-07-30T04:45:22;325.60;;;239.70;;
9807;SDS011;4943;52.550;13.462;2023-07-30T04:47:52;324.20;;;237.53;;
9807;SDS011;4943;52.550;13.462;2023-07-30T04:50:20;330.03;;;243.27;;
9807;SDS011;4943;52.550;13.462;2023-07-30T04:52:48;325.23;;;239.50;;
9807;SDS011;4943;52.550;13.462;2023-07-30T04:55:17;329.60;;;250.90;;
9807;SDS011;4943;52.550;13.462;2023-07-30T04:57:45;327.37;;;242.10;;
9807;SDS011;4943;52.550;13.462;2023-07-30T05:00:13;324.13;;;235.67;;
9807;SDS011;4943;52.550;13.462;2023-07-30T05:02:41;324.97;;;244.03;;
9807;SDS011;4943;52.550;13.462;2023-07-30T05:05:11;324.20;;;240.17;;
9807;SDS011;4943;52.550;13.462;2023-07-30T05:07:39;323.00;;;236.80;;
9807;SDS011;4943;52.550;13.462;2023-07-30T05:10:08;325.17;;;245.53;;
9807;SDS011;4943;52.550;13.462;2023-07-30T05:12:37;325.40;;;242.13;;
9807;SDS011;4943;52.550;13.462;2023-07-30T05:15:05;323.97;;;242.00;;
9807;SDS011;4943;52.550;13.462;2023-07-30T05:17:34;329.93;;;254.90;;
9807;SDS011;4943;52.550;13.462;2023-07-30T05:20:02;329.90;;;260.73;;
9807;SDS011;4943;52.550;13.462;2023-07-30T05:22:33;332.17;;;252.73;;
9807;SDS011;4943;52.550;13.462;2023-07-30T05:25:01;331.73;;;256.70;;
9807;SDS011;4943;52.550;13.462;2023-07-30T05:27:29;331.63;;;265.43;;
9807;SDS011;4943;52.550;13.462;2023-07-30T05:29:58;332.40;;;268.90;;
9807;SDS011;4943;52.550;13.462;2023-07-30T05:32:26;335.80;;;273.47;;
9807;SDS011;4943;52.550;13.462;2023-07-30T05:34:54;333.07;;;265.50;;
9807;SDS011;4943;52.550;13.462;2023-07-30T05:37:23;336.73;;;277.53;;
9807;SDS011;4943;52.550;13.462;2023-07-30T05:39:52;338.10;;;272.87;;
9807;SDS011;4943;52.550;13.462;2023-07-30T05:42:20;338.33;;;286.53;;
9807;SDS011;4943;52.550;13.462;2023-07-30T05:44:48;354.27;;;315.80;;
9807;SDS011;4943;52.550;13.462;2023-07-30T05:47:17;344.33;;;305.13;;
9807;SDS011;4943;52.550;13.462;2023-07-30T05:49:45;342.97;;;304.40;;
9807;SDS011;4943;52.550;13.462;2023-07-30T05:52:13;342.93;;;304.40;;
9807;SDS011;4943;52.550;13.462;2023-07-30T05:54:41;363.77;;;325.10;;
9807;SDS011;4943;52.550;13.462;2023-07-30T05:57:11;340.97;;;300.13;;
9807;SDS011;4943;52.550;13.462;2023-07-30T05:59:39;347.30;;;309.33;;
9807;SDS011;4943;52.550;13.462;2023-07-30T06:02:07;355.73;;;317.47;;
9807;SDS011;4943;52.550;13.462;2023-07-30T06:04:36;344.53;;;306.27;;
9807;SDS011;4943;52.550;13.462;2023-07-30T06:07:04;350.03;;;311.93;;
9807;SDS011;4943;52.550;13.462;2023-07-30T06:09:32;344.80;;;306.83;;
9807;SDS011;4943;52.550;13.462;2023-07-30T06:12:01;336.10;;;292.30;;
9807;SDS011;4943;52.550;13.462;2023-07-30T06:14:31;340.93;;;303.10;;
9807;SDS011;4943;52.550;13.462;2023-07-30T06:16:59;358.83;;;320.53;;
9807;SDS011;4943;52.550;13.462;2023-07-30T06:19:28;359.27;;;320.83;;
9807;SDS011;4943;52.550;13.462;2023-07-30T06:21:56;348.33;;;310.33;;
9807;SDS011;4943;52.550;13.462;2023-07-30T06:24:25;353.60;;;315.50;;
9807;SDS011;4943;52.550;13.462;2023-07-30T06:26:53;345.43;;;307.70;;
9807;SDS011;4943;52.550;13.462;2023-07-30T06:29:21;346.70;;;308.93;;
9807;SDS011;4943;52.550;13.462;2023-07-30T06:31:51;358.60;;;320.20;;
9807;SDS011;4943;52.550;13.462;2023-07-30T06:34:19;378.53;;;339.53;;
9807;SDS011;4943;52.550;13.462;2023-07-30T06:36:47;367.97;;;329.43;;
9807;SDS011;4943;52.550;13.462;2023-07-30T06:39:15;370.37;;;331.80;;
9807;SDS011;4943;52.550;13.462;2023-07-30T06:41:44;374.87;;;336.13;;
9807;SDS011;4943;52.550;13.462;2023-07-30T06:44:12;378.87;;;340.03;;
9807;SDS011;4943;52.550;13.462;2023-07-30T06:46:40;391.23;;;351.83;;
9807;SDS011;4943;52.550;13.462;2023-07-30T06:49:10;392.37;;;352.90;;
9807;SDS011;4943;52.550;13.462;2023-07-30T06:51:38;412.40;;;372.10;;
9807;SDS011;4943;52.550;13.462;2023-07-30T06:54:07;421.43;;;380.93;;
9807;SDS011;4943;52.550;13.462;2023-07-30T06:56:35;423.27;;;382.53;;
9807;SDS011;4943;52.550;13.462;2023-07-30T06:59:03;393.97;;;354.67;;
9807;SDS011;4943;52.550;13.462;2023-07-30T07:01:31;389.27;;;350.07;;
9807;SDS011;4943;52.550;13.462;2023-07-30T07:03:59;409.30;;;369.37;;
9807;SDS011;4943;52.550;13.462;2023-07-30T07:06:29;417.83;;;377.57;;
9807;SDS011;4943;52.550;13.462;2023-07-30T07:08:57;389.10;;;349.97;;
9807;SDS011;4943;52.550;13.462;2023-07-30T07:11:25;399.03;;;359.50;;
9807;SDS011;4943;52.550;13.462;2023-07-30T07:13:53;405.80;;;366.13;;
9807;SDS011;4943;52.550;13.462;2023-07-30T07:16:21;398.07;;;358.47;;
9807;SDS011;4943;52.550;13.462;2023-07-30T07:18:49;411.67;;;371.70;;
9807;SDS011;4943;52.550;13.462;2023-07-30T07:21:17;401.30;;;361.80;;
9807;SDS011;4943;52.550;13.462;2023-07-30T07:23:48;415.13;;;375.00;;
9807;SDS011;4943;52.550;13.462;2023-07-30T07:26:16;443.00;;;401.40;;
9807;SDS011;4943;52.550;13.462;2023-07-30T07:28:44;460.27;;;418.17;;
9807;SDS011;4943;52.550;13.462;2023-07-30T07:31:12;427.60;;;386.37;;
9807;SDS011;4943;52.550;13.462;2023-07-30T07:33:40;423.90;;;383.03;;
9807;SDS011;4943;52.550;13.462;2023-07-30T07:36:08;410.80;;;370.17;;
9807;SDS011;4943;52.550;13.462;2023-07-30T07:38:36;437.37;;;395.80;;
9807;SDS011;4943;52.550;13.462;2023-07-30T07:41:05;438.80;;;397.27;;
9807;SDS011;4943;52.550;13.462;2023-07-30T07:43:33;470.90;;;427.90;;
9807;SDS011;4943;52.550;13.462;2023-07-30T07:46:01;462.30;;;420.20;;
9807;SDS011;4943;52.550;13.462;2023-07-30T07:48:29;430.17;;;389.17;;
9807;SDS011;4943;52.550;13.462;2023-07-30T07:50:57;467.50;;;425.07;;
9807;SDS011;4943;52.550;13.462;2023-07-30T07:53:25;453.23;;;411.27;;
9807;SDS011;4943;52.550;13.462;2023-07-30T07:55:53;459.67;;;417.47;;
9807;SDS011;4943;52.550;13.462;2023-07-30T07:58:23;470.90;;;428.50;;
9807;SDS011;4943;52.550;13.462;2023-07-30T08:00:53;484.63;;;441.60;;
9807;SDS011;4943;52.550;13.462;2023-07-30T08:03:22;466.20;;;423.73;;
9807;SDS011;4943;52.550;13.462;2023-07-30T08:05:53;499.23;;;455.60;;
9807;SDS011;4943;52.550;13.462;2023-07-30T08:08:21;492.50;;;448.87;;
9807;SDS011;4943;52.550;13.462;2023-07-30T08:10:52;474.47;;;431.63;;
9807;SDS011;4943;52.550;13.462;2023-07-30T08:13:20;470.77;;;428.03;;
9807;SDS011;4943;52.550;13.462;2023-07-30T08:15:50;482.30;;;439.43;;
9807;SDS011;4943;52.550;13.462;2023-07-30T08:18:18;461.37;;;419.13;;
9807;SDS011;4943;52.550;13.462;2023-07-30T08:20:46;478.90;;;436.17;;
9807;SDS011;4943;52.550;13.462;2023-07-30T08:23:14;497.90;;;454.50;;
9807;SDS011;4943;52.550;13.462;2023-07-30T08:25:42;511.33;;;467.43;;
9807;SDS011;4943;52.550;13.462;2023-07-30T08:28:10;526.53;;;482.07;;
9807;SDS011;4943;52.550;13.462;2023-07-30T08:30:39;512.23;;;468.27;;
9807;SDS011;4943;52.550;13.462;2023-07-30T08:33:07;488.40;;;445.40;;
9807;SDS011;4943;52.550;13.462;2023-07-30T08:35:35;517.80;;;473.40;;
9807;SDS011;4943;52.550;13.462;2023-07-30T08:38:03;522.63;;;478.67;;
9807;SDS011;4943;52.550;13.462;2023-07-30T08:40:32;508.67;;;464.97;;
9807;SDS011;4943;52.550;13.462;2023-07-30T08:43:00;534.97;;;490.37;;
9807;SDS011;4943;52.550;13.462;2023-07-30T08:45:30;515.47;;;471.60;;
9807;SDS011;4943;52.550;13.462;2023-07-30T08:48:00;485.63;;;442.47;;
9807;SDS011;4943;52.550;13.462;2023-07-30T08:50:28;481.77;;;439.30;;
9807;SDS011;4943;52.550;13.462;2023-07-30T08:52:57;466.60;;;424.33;;
9807;SDS011;4943;52.550;13.462;2023-07-30T08:55:26;485.60;;;442.90;;
9807;SDS011;4943;52.550;13.462;2023-07-30T08:57:56;443.43;;;402.10;;
9807;SDS011;4943;52.550;13.462;2023-07-30T09:00:25;462.20;;;420.20;;
9807;SDS011;4943;52.550;13.462;2023-07-30T09:02:59;451.27;;;409.33;;
9807;SDS011;4943;52.550;13.462;2023-07-30T09:05:30;490.90;;;447.67;;
9807;SDS011;4943;52.550;13.462;2023-07-30T09:07:58;441.60;;;400.30;;
9807;SDS011;4943;52.550;13.462;2023-07-30T09:10:26;457.73;;;415.90;;
9807;SDS011;4943;52.550;13.462;2023-07-30T09:12:55;449.87;;;408.10;;
9807;SDS011;4943;52.550;13.462;2023-07-30T09:15:32;475.63;;;433.13;;
9807;SDS011;4943;52.550;13.462;2023-07-30T09:18:03;469.80;;;427.67;;
9807;SDS011;4943;52.550;13.462;2023-07-30T09:20:37;487.73;;;445.10;;
9807;SDS011;4943;52.550;13.462;2023-07-30T09:23:06;520.40;;;476.40;;
9807;SDS011;4943;52.550;13.462;2023-07-30T09:25:34;523.83;;;479.77;;
9807;SDS011;4943;52.550;13.462;2023-07-30T09:28:05;531.83;;;487.60;;
9807;SDS011;4943;52.550;13.462;2023-07-30T09:30:34;525.97;;;482.03;;
9807;SDS011;4943;52.550;13.462;2023-07-30T09:33:03;532.27;;;488.00;;
9807;SDS011;4943;52.550;13.462;2023-07-30T09:35:32;542.27;;;497.90;;
9807;SDS011;4943;52.550;13.462;2023-07-30T09:38:01;537.67;;;493.23;;
9807;SDS011;4943;52.550;13.462;2023-07-30T09:40:31;518.90;;;475.23;;
9807;SDS011;4943;52.550;13.462;2023-07-30T09:43:00;510.83;;;467.30;;
9807;SDS011;4943;52.550;13.462;2023-07-30T09:45:32;518.70;;;474.83;;
9807;SDS011;4943;52.550;13.462;2023-07-30T09:48:02;567.30;;;521.73;;
9807;SDS011;4943;52.550;13.462;2023-07-30T09:50:33;552.17;;;506.97;;
9807;SDS011;4943;52.550;13.462;2023-07-30T09:53:01;490.23;;;446.97;;
9807;SDS011;4943;52.550;13.462;2023-07-30T09:55:30;500.20;;;456.23;;
9807;SDS011;4943;52.550;13.462;2023-07-30T09:57:58;502.13;;;458.70;;
9807;SDS011;4943;52.550;13.462;2023-07-30T10:00:26;512.40;;;468.33;;
9807;SDS011;4943;52.550;13.462;2023-07-30T10:02:57;484.67;;;441.83;;
9807;SDS011;4943;52.550;13.462;2023-07-30T10:05:29;517.43;;;473.50;;
9807;SDS011;4943;52.550;13.462;2023-07-30T10:08:02;501.57;;;458.20;;
9807;SDS011;4943;52.550;13.462;2023-07-30T10:10:34;536.63;;;492.33;;
9807;SDS011;4943;52.550;13.462;2023-07-30T10:13:05;557.67;;;512.53;;
9807;SDS011;4943;52.550;13.462;2023-07-30T10:15:35;531.33;;;487.37;;
9807;SDS011;4943;52.550;13.462;2023-07-30T10:18:05;565.20;;;520.03;;
9807;SDS011;4943;52.550;13.462;2023-07-30T10:20:35;544.93;;;500.17;;
9807;SDS011;4943;52.550;13.462;2023-07-30T10:23:04;546.80;;;502.40;;
9807;SDS011;4943;52.550;13.462;2023-07-30T10:25:42;550.23;;;505.77;;
9807;SDS011;4943;52.550;13.462;2023-07-30T10:28:25;529.00;;;484.87;;
9807;SDS011;4943;52.550;13.462;2023-07-30T10:30:55;537.50;;;493.37;;
9807;SDS011;4943;52.550;13.462;2023-07-30T10:33:24;534.30;;;490.27;;
9807;SDS011;4943;52.550;13.462;2023-07-30T10:36:14;553.43;;;509.00;;
9807;SDS011;4943;52.550;13.462;2023-07-30T10:38:44;531.93;;;487.67;;
9807;SDS011;4943;52.550;13.462;2023-07-30T10:41:13;559.00;;;514.23;;
9807;SDS011;4943;52.550;13.462;2023-07-30T10:43:45;566.03;;;521.00;;
9807;SDS011;4943;52.550;13.462;2023-07-30T10:46:15;558.75;;;513.78;;
9807;SDS011;4943;52.550;13.462;2023-07-30T10:48:46;549.35;;;504.65;;
9807;SDS011;4943;52.550;13.462;2023-07-30T10:51:17;584.75;;;539.22;;
9807;SDS011;4943;52.550;13.462;2023-07-30T10:53:47;574.28;;;529.22;;
9807;SDS011;4943;52.550;13.462;2023-07-30T10:56:17;573.40;;;528.50;;
9807;SDS011;4943;52.550;13.462;2023-07-30T10:58:48;600.42;;;554.58;;
9807;SDS011;4943;52.550;13.462;2023-07-30T11:01:18;563.03;;;518.03;;
9807;SDS011;4943;52.550;13.462;2023-07-30T11:03:48;589.38;;;543.90;;
9807;SDS011;4943;52.550;13.462;2023-07-30T11:06:22;611.97;;;566.15;;
9807;SDS011;4943;52.550;13.462;2023-07-30T11:08:51;655.88;;;608.22;;
9807;SDS011;4943;52.550;13.462;2023-07-30T11:11:19;650.70;;;602.92;;
9807;SDS011;4943;52.550;13.462;2023-07-30T11:13:49;643.15;;;596.22;;
9807;SDS011;4943;52.550;13.462;2023-07-30T11:16:17;648.13;;;601.05;;
9807;SDS011;4943;52.550;13.462;2023-07-30T11:18:46;644.13;;;597.00;;
9807;SDS011;4943;52.550;13.462;2023-07-30T11:21:15;641.75;;;594.67;;
9807;SDS011;4943;52.550;13.462;2023-07-30T11:23:46;646.47;;;599.38;;
9807;SDS011;4943;52.550;13.462;2023-07-30T11:26:15;654.38;;;606.63;;
9807;SDS011;4943;52.550;13.462;2023-07-30T11:28:44;663.85;;;616.13;;
9807;SDS011;4943;52.550;13.462;2023-07-30T11:31:14;656.50;;;609.05;;
9807;SDS011;4943;52.550;13.462;2023-07-30T11:33:45;661.63;;;613.85;;
9807;SDS011;4943;52.550;13.462;2023-07-30T11:36:15;651.13;;;604.08;;
9807;SDS011;4943;52.550;13.462;2023-07-30T11:38:45;653.53;;;606.17;;
9807;SDS011;4943;52.550;13.462;2023-07-30T11:41:14;642.53;;;595.10;;
9807;SDS011;4943;52.550;13.462;2023-07-30T11:43:43;632.45;;;585.83;;
9807;SDS011;4943;52.550;13.462;2023-07-30T11:46:12;649.13;;;601.95;;
9807;SDS011;4943;52.550;13.462;2023-07-30T11:48:42;645.45;;;598.35;;
9807;SDS011;4943;52.550;13.462;2023-07-30T11:51:21;638.00;;;590.88;;
9807;SDS011;4943;52.550;13.462;2023-07-30T11:53:52;647.63;;;600.05;;
9807;SDS011;4943;52.550;13.462;2023-07-30T11:56:22;640.53;;;593.45;;
9807;SDS011;4943;52.550;13.462;2023-07-30T11:58:55;627.28;;;580.40;;
9807;SDS011;4943;52.550;13.462;2023-07-30T12:01:25;621.47;;;574.95;;
9807;SDS011;4943;52.550;13.462;2023-07-30T12:03:55;636.05;;;589.17;;
9807;SDS011;4943;52.550;13.462;2023-07-30T12:06:24;644.20;;;597.08;;
9807;SDS011;4943;52.550;13.462;2023-07-30T12:09:10;632.40;;;585.80;;
9807;SDS011;4943;52.550;13.462;2023-07-30T12:11:49;638.70;;;591.75;;
9807;SDS011;4943;52.550;13.462;2023-07-30T12:14:18;637.05;;;590.13;;
9807;SDS011;4943;52.550;13.462;2023-07-30T12:16:47;641.85;;;594.70;;
9807;SDS011;4943;52.550;13.462;2023-07-30T12:19:15;637.47;;;590.63;;
9807;SDS011;4943;52.550;13.462;2023-07-30T12:21:43;637.72;;;590.85;;
9807;SDS011;4943;52.550;13.462;2023-07-30T12:24:13;649.38;;;601.70;;
9807;SDS011;4943;52.550;13.462;2023-07-30T12:26:41;662.53;;;615.08;;
9807;SDS011;4943;52.550;13.462;2023-07-30T12:29:09;657.80;;;610.20;;
9807;SDS011;4943;52.550;13.462;2023-07-30T12:31:37;655.42;;;608.00;;
9807;SDS011;4943;52.550;13.462;2023-07-30T12:34:06;683.45;;;635.28;;
9807;SDS011;4943;52.550;13.462;2023-07-30T12:36:34;679.55;;;631.33;;
9807;SDS011;4943;52.550;13.462;2023-07-30T12:39:02;685.75;;;637.67;;
9807;SDS011;4943;52.550;13.462;2023-07-30T12:41:31;662.65;;;615.13;;
9807;SDS011;4943;52.550;13.462;2023-07-30T12:43:59;690.72;;;642.35;;
9807;SDS011;4943;52.550;13.462;2023-07-30T12:46:29;691.05;;;642.88;;
9807;SDS011;4943;52.550;13.462;2023-07-30T12:48:59;684.65;;;636.58;;
9807;SDS011;4943;52.550;13.462;2023-07-30T12:51:30;695.10;;;646.17;;
9807;SDS011;4943;52.550;13.462;2023-07-30T12:53:58;698.58;;;650.00;;
9807;SDS011;4943;52.550;13.462;2023-07-30T12:56:27;673.58;;;625.88;;
9807;SDS011;4943;52.550;13.462;2023-07-30T12:58:56;709.92;;;661.10;;
9807;SDS011;4943;52.550;13.462;2023-07-30T13:01:24;708.88;;;660.00;;
9807;SDS011;4943;52.550;13.462;2023-07-30T13:03:52;694.60;;;646.30;;
9807;SDS011;4943;52.550;13.462;2023-07-30T13:06:21;691.53;;;643.42;;
9807;SDS011;4943;52.550;13.462;2023-07-30T13:08:49;695.20;;;647.00;;
9807;SDS011;4943;52.550;13.462;2023-07-30T13:11:17;701.30;;;653.13;;
9807;SDS011;4943;52.550;13.462;2023-07-30T13:13:45;703.13;;;654.55;;
9807;SDS011;4943;52.550;13.462;2023-07-30T13:16:14;701.92;;;653.53;;
9807;SDS011;4943;52.550;13.462;2023-07-30T13:18:42;723.08;;;674.05;;
9807;SDS011;4943;52.550;13.462;2023-07-30T13:21:10;713.33;;;664.63;;
9807;SDS011;4943;52.550;13.462;2023-07-30T13:23:38;724.00;;;675.05;;
9807;SDS011;4943;52.550;13.462;2023-07-30T13:26:06;717.30;;;668.30;;
9807;SDS011;4943;52.550;13.462;2023-07-30T13:28:34;722.20;;;673.17;;
9807;SDS011;4943;52.550;13.462;2023-07-30T13:31:02;722.08;;;673.25;;
9807;SDS011;4943;52.550;13.462;2023-07-30T13:33:32;725.20;;;676.00;;
9807;SDS011;4943;52.550;13.462;2023-07-30T13:36:00;728.38;;;679.13;;
9807;SDS011;4943;52.550;13.462;2023-07-30T13:38:28;732.55;;;683.30;;
9807;SDS011;4943;52.550;13.462;2023-07-30T13:40:56;725.97;;;676.90;;
9807;SDS011;4943;52.550;13.462;2023-07-30T13:43:24;707.08;;;658.30;;
9807;SDS011;4943;52.550;13.462;2023-07-30T13:45:53;717.80;;;669.03;;
9807;SDS011;4943;52.550;13.462;2023-07-30T13:48:21;702.33;;;654.13;;
9807;SDS011;4943;52.550;13.462;2023-07-30T13:50:50;701.90;;;653.47;;
9807;SDS011;4943;52.550;13.462;2023-07-30T13:53:19;706.15;;;657.72;;
9807;SDS011;4943;52.550;13.462;2023-07-30T13:55:47;686.08;;;638.17;;
9807;SDS011;4943;52.550;13.462;2023-07-30T13:58:15;691.22;;;643.17;;
9807;SDS011;4943;52.550;13.462;2023-07-30T14:00:43;693.28;;;645.17;;
9807;SDS011;4943;52.550;13.462;2023-07-30T14:03:11;706.00;;;657.47;;
9807;SDS011;4943;52.550;13.462;2023-07-30T14:05:39;722.83;;;673.60;;
9807;SDS011;4943;52.550;13.462;2023-07-30T14:08:09;716.17;;;667.03;;
9807;SDS011;4943;52.550;13.462;2023-07-30T14:10:38;718.78;;;669.78;;
9807;SDS011;4943;52.550;13.462;2023-07-30T14:13:06;686.63;;;638.60;;
9807;SDS011;4943;52.550;13.462;2023-07-30T14:15:34;707.13;;;658.05;;
9807;SDS011;4943;52.550;13.462;2023-07-30T14:18:02;688.33;;;639.70;;